sensor_id;sensor_type;location;lat;lon;timestamp;P1;durP1;ratioP1;P2;durP2;ratioP2
76863;SDS011;65834;52.364;9.754;2023-10-09T00:02:08;4.10;;;1.30;;
76863;SDS011;65834;52.364;9.754;2023-10-09T00:04:38;5.60;;;1.35;;
76863;SDS011;65834;52.364;9.754;2023-10-09T00:07:09;4.10;;;1.13;;
76863;SDS011;65834;52.364;9.754;2023-10-09T00:09:42;3.53;;;1.10;;
76863;SDS011;65834;52.364;9.754;2023-10-09T00:12:18;3.50;;;1.20;;
76863;SDS011;65834;52.364;9.754;2023-10-09T00:14:52;4.65;;;1.30;;
76863;SDS011;65834;52.364;9.754;2023-10-09T00:17:30;2.72;;;1.02;;
76863;SDS011;65834;52.364;9.754;2023-10-09T00:20:00;4.28;;;1.40;;
76863;SDS011;65834;52.364;9.754;2023-10-09T00:22:44;7.00;;;1.98;;
76863;SDS011;65834;52.364;9.754;2023-10-09T00:25:16;2.75;;;1.20;;
76863;SDS011;65834;52.364;9.754;2023-10-09T00:27:56;5.05;;;1.40;;
76863;SDS011;65834;52.364;9.754;2023-10-09T00:30:30;5.03;;;1.38;;
76863;SDS011;65834;52.364;9.754;2023-10-09T00:33:02;2.97;;;1.10;;
76863;SDS011;65834;52.364;9.754;2023-10-09T00:35:36;6.85;;;1.48;;
76863;SDS011;65834;52.364;9.754;2023-10-09T00:38:08;6.38;;;1.67;;
76863;SDS011;65834;52.364;9.754;2023-10-09T00:40:50;5.32;;;1.55;;
76863;SDS011;65834;52.364;9.754;2023-10-09T00:43:37;4.82;;;2.25;;
76863;SDS011;65834;52.364;9.754;2023-10-09T00:48:52;4.70;;;1.45;;
76863;SDS011;65834;52.364;9.754;2023-10-09T00:51:24;4.32;;;1.48;;
76863;SDS011;65834;52.364;9.754;2023-10-09T00:53:59;8.95;;;1.77;;
76863;SDS011;65834;52.364;9.754;2023-10-09T00:56:36;5.30;;;1.55;;
76863;SDS011;65834;52.364;9.754;2023-10-09T00:59:13;4.93;;;1.77;;
76863;SDS011;65834;52.364;9.754;2023-10-09T01:01:47;4.65;;;1.55;;
76863;SDS011;65834;52.364;9.754;2023-10-09T01:04:24;6.15;;;1.80;;
76863;SDS011;65834;52.364;9.754;2023-10-09T01:06:56;7.68;;;1.70;;
76863;SDS011;65834;52.364;9.754;2023-10-09T01:09:42;6.80;;;1.80;;
76863;SDS011;65834;52.364;9.754;2023-10-09T01:12:14;7.35;;;1.60;;
76863;SDS011;65834;52.364;9.754;2023-10-09T01:14:46;5.10;;;1.40;;
76863;SDS011;65834;52.364;9.754;2023-10-09T01:17:23;4.93;;;1.60;;
76863;SDS011;65834;52.364;9.754;2023-10-09T01:20:04;4.57;;;1.67;;
76863;SDS011;65834;52.364;9.754;2023-10-09T01:22:41;4.93;;;1.73;;
76863;SDS011;65834;52.364;9.754;2023-10-09T01:25:14;4.32;;;1.52;;
76863;SDS011;65834;52.364;9.754;2023-10-09T01:27:44;6.75;;;1.67;;
76863;SDS011;65834;52.364;9.754;2023-10-09T01:30:14;11.48;;;2.28;;
76863;SDS011;65834;52.364;9.754;2023-10-09T01:32:44;7.47;;;1.85;;
76863;SDS011;65834;52.364;9.754;2023-10-09T01:35:14;8.77;;;2.33;;
76863;SDS011;65834;52.364;9.754;2023-10-09T01:37:47;6.18;;;1.85;;
76863;SDS011;65834;52.364;9.754;2023-10-09T01:40:20;7.35;;;2.15;;
76863;SDS011;65834;52.364;9.754;2023-10-09T01:43:04;7.30;;;1.88;;
76863;SDS011;65834;52.364;9.754;2023-10-09T01:45:36;6.07;;;1.65;;
76863;SDS011;65834;52.364;9.754;2023-10-09T01:48:09;5.25;;;1.73;;
76863;SDS011;65834;52.364;9.754;2023-10-09T01:50:41;4.22;;;1.77;;
76863;SDS011;65834;52.364;9.754;2023-10-09T01:53:15;5.57;;;1.60;;
76863;SDS011;65834;52.364;9.754;2023-10-09T01:55:52;6.65;;;1.90;;
76863;SDS011;65834;52.364;9.754;2023-10-09T02:00:54;3.38;;;1.42;;
76863;SDS011;65834;52.364;9.754;2023-10-09T02:03:24;7.00;;;1.90;;
76863;SDS011;65834;52.364;9.754;2023-10-09T02:05:56;7.43;;;1.90;;
76863;SDS011;65834;52.364;9.754;2023-10-09T02:08:27;6.82;;;1.63;;
76863;SDS011;65834;52.364;9.754;2023-10-09T02:10:59;7.35;;;2.03;;
76863;SDS011;65834;52.364;9.754;2023-10-09T02:13:29;4.55;;;1.77;;
76863;SDS011;65834;52.364;9.754;2023-10-09T02:16:01;7.65;;;1.90;;
76863;SDS011;65834;52.364;9.754;2023-10-09T02:18:42;7.70;;;2.10;;
76863;SDS011;65834;52.364;9.754;2023-10-09T02:21:22;6.03;;;1.77;;
76863;SDS011;65834;52.364;9.754;2023-10-09T02:24:01;7.70;;;2.05;;
76863;SDS011;65834;52.364;9.754;2023-10-09T02:26:55;5.97;;;2.20;;
76863;SDS011;65834;52.364;9.754;2023-10-09T02:29:38;7.80;;;1.92;;
76863;SDS011;65834;52.364;9.754;2023-10-09T02:32:08;7.60;;;2.13;;
76863;SDS011;65834;52.364;9.754;2023-10-09T02:34:52;8.32;;;1.92;;
76863;SDS011;65834;52.364;9.754;2023-10-09T02:37:32;8.57;;;2.30;;
76863;SDS011;65834;52.364;9.754;2023-10-09T02:40:05;6.38;;;2.25;;
76863;SDS011;65834;52.364;9.754;2023-10-09T02:42:39;10.15;;;2.28;;
76863;SDS011;65834;52.364;9.754;2023-10-09T02:45:10;7.22;;;2.15;;
76863;SDS011;65834;52.364;9.754;2023-10-09T02:47:51;9.27;;;2.58;;
76863;SDS011;65834;52.364;9.754;2023-10-09T02:50:22;9.10;;;2.30;;
76863;SDS011;65834;52.364;9.754;2023-10-09T02:52:54;8.05;;;1.92;;
76863;SDS011;65834;52.364;9.754;2023-10-09T02:55:35;7.43;;;2.10;;
76863;SDS011;65834;52.364;9.754;2023-10-09T02:58:08;8.07;;;2.22;;
76863;SDS011;65834;52.364;9.754;2023-10-09T03:00:47;6.38;;;2.25;;
76863;SDS011;65834;52.364;9.754;2023-10-09T03:03:18;7.22;;;1.92;;
76863;SDS011;65834;52.364;9.754;2023-10-09T03:05:48;7.25;;;1.90;;
76863;SDS011;65834;52.364;9.754;2023-10-09T03:08:17;7.97;;;2.28;;
76863;SDS011;65834;52.364;9.754;2023-10-09T03:10:47;10.60;;;2.40;;
76863;SDS011;65834;52.364;9.754;2023-10-09T03:13:19;9.05;;;2.40;;
76863;SDS011;65834;52.364;9.754;2023-10-09T03:15:49;7.85;;;2.15;;
76863;SDS011;65834;52.364;9.754;2023-10-09T03:18:18;8.13;;;2.42;;
76863;SDS011;65834;52.364;9.754;2023-10-09T03:20:48;7.63;;;2.17;;
76863;SDS011;65834;52.364;9.754;2023-10-09T03:23:18;8.27;;;2.33;;
76863;SDS011;65834;52.364;9.754;2023-10-09T03:25:47;7.88;;;2.30;;
76863;SDS011;65834;52.364;9.754;2023-10-09T03:28:20;7.70;;;2.40;;
76863;SDS011;65834;52.364;9.754;2023-10-09T03:30:50;8.23;;;2.40;;
76863;SDS011;65834;52.364;9.754;2023-10-09T03:33:19;9.73;;;2.53;;
76863;SDS011;65834;52.364;9.754;2023-10-09T03:35:50;8.32;;;2.53;;
76863;SDS011;65834;52.364;9.754;2023-10-09T03:38:19;6.78;;;2.38;;
76863;SDS011;65834;52.364;9.754;2023-10-09T03:40:49;7.95;;;2.70;;
76863;SDS011;65834;52.364;9.754;2023-10-09T03:43:21;7.30;;;2.47;;
76863;SDS011;65834;52.364;9.754;2023-10-09T03:45:51;10.02;;;2.78;;
76863;SDS011;65834;52.364;9.754;2023-10-09T03:48:23;9.32;;;2.65;;
76863;SDS011;65834;52.364;9.754;2023-10-09T03:50:59;13.13;;;3.60;;
76863;SDS011;65834;52.364;9.754;2023-10-09T03:53:36;8.77;;;2.90;;
76863;SDS011;65834;52.364;9.754;2023-10-09T03:56:06;12.57;;;2.75;;
76863;SDS011;65834;52.364;9.754;2023-10-09T03:58:45;10.82;;;3.22;;
76863;SDS011;65834;52.364;9.754;2023-10-09T04:01:16;10.02;;;3.03;;
76863;SDS011;65834;52.364;9.754;2023-10-09T04:03:50;11.85;;;3.72;;
76863;SDS011;65834;52.364;9.754;2023-10-09T04:06:22;9.15;;;3.30;;
76863;SDS011;65834;52.364;9.754;2023-10-09T04:08:55;10.40;;;3.03;;
76863;SDS011;65834;52.364;9.754;2023-10-09T04:11:25;12.23;;;3.90;;
76863;SDS011;65834;52.364;9.754;2023-10-09T04:13:58;12.82;;;3.60;;
76863;SDS011;65834;52.364;9.754;2023-10-09T04:16:36;12.77;;;3.38;;
76863;SDS011;65834;52.364;9.754;2023-10-09T04:19:17;12.02;;;3.60;;
76863;SDS011;65834;52.364;9.754;2023-10-09T04:21:48;14.23;;;3.95;;
76863;SDS011;65834;52.364;9.754;2023-10-09T04:24:15;12.82;;;4.30;;
76863;SDS011;65834;52.364;9.754;2023-10-09T04:27:02;15.23;;;4.13;;
76863;SDS011;65834;52.364;9.754;2023-10-09T04:29:33;14.57;;;4.63;;
76863;SDS011;65834;52.364;9.754;2023-10-09T04:32:10;17.48;;;5.10;;
76863;SDS011;65834;52.364;9.754;2023-10-09T04:34:44;15.15;;;4.88;;
76863;SDS011;65834;52.364;9.754;2023-10-09T04:37:23;12.45;;;4.78;;
76863;SDS011;65834;52.364;9.754;2023-10-09T04:40:03;16.17;;;5.43;;
76863;SDS011;65834;52.364;9.754;2023-10-09T04:43:00;16.00;;;5.72;;
76863;SDS011;65834;52.364;9.754;2023-10-09T04:45:37;14.65;;;5.70;;
76863;SDS011;65834;52.364;9.754;2023-10-09T04:48:20;19.20;;;6.40;;
76863;SDS011;65834;52.364;9.754;2023-10-09T04:51:00;20.25;;;7.25;;
76863;SDS011;65834;52.364;9.754;2023-10-09T04:53:42;19.85;;;7.18;;
76863;SDS011;65834;52.364;9.754;2023-10-09T04:56:16;18.23;;;6.82;;
76863;SDS011;65834;52.364;9.754;2023-10-09T04:58:50;17.90;;;7.55;;
76863;SDS011;65834;52.364;9.754;2023-10-09T05:01:32;21.13;;;9.27;;
76863;SDS011;65834;52.364;9.754;2023-10-09T05:04:10;25.73;;;10.60;;
76863;SDS011;65834;52.364;9.754;2023-10-09T05:06:56;29.85;;;12.60;;
76863;SDS011;65834;52.364;9.754;2023-10-09T05:09:25;29.88;;;14.65;;
76863;SDS011;65834;52.364;9.754;2023-10-09T05:12:07;35.45;;;14.90;;
76863;SDS011;65834;52.364;9.754;2023-10-09T05:14:45;29.80;;;14.18;;
76863;SDS011;65834;52.364;9.754;2023-10-09T05:17:38;30.92;;;15.57;;
76863;SDS011;65834;52.364;9.754;2023-10-09T05:20:18;30.88;;;15.27;;
76863;SDS011;65834;52.364;9.754;2023-10-09T05:23:00;37.38;;;17.38;;
76863;SDS011;65834;52.364;9.754;2023-10-09T05:25:49;32.67;;;15.65;;
76863;SDS011;65834;52.364;9.754;2023-10-09T05:28:25;36.83;;;16.27;;
76863;SDS011;65834;52.364;9.754;2023-10-09T05:30:58;30.13;;;14.88;;
76863;SDS011;65834;52.364;9.754;2023-10-09T05:33:41;35.00;;;15.43;;
76863;SDS011;65834;52.364;9.754;2023-10-09T05:36:12;36.28;;;15.77;;
76863;SDS011;65834;52.364;9.754;2023-10-09T05:38:58;30.38;;;14.00;;
76863;SDS011;65834;52.364;9.754;2023-10-09T05:41:26;32.30;;;14.70;;
76863;SDS011;65834;52.364;9.754;2023-10-09T05:44:14;29.27;;;14.15;;
76863;SDS011;65834;52.364;9.754;2023-10-09T05:46:56;31.98;;;15.23;;
76863;SDS011;65834;52.364;9.754;2023-10-09T05:49:41;31.27;;;15.38;;
76863;SDS011;65834;52.364;9.754;2023-10-09T05:52:29;31.08;;;15.13;;
76863;SDS011;65834;52.364;9.754;2023-10-09T05:55:19;28.80;;;13.63;;
76863;SDS011;65834;52.364;9.754;2023-10-09T05:58:10;31.33;;;14.52;;
76863;SDS011;65834;52.364;9.754;2023-10-09T06:01:03;33.58;;;15.73;;
76863;SDS011;65834;52.364;9.754;2023-10-09T06:03:45;31.92;;;14.77;;
76863;SDS011;65834;52.364;9.754;2023-10-09T06:06:23;32.90;;;15.32;;
76863;SDS011;65834;52.364;9.754;2023-10-09T06:09:10;31.52;;;15.38;;
76863;SDS011;65834;52.364;9.754;2023-10-09T06:11:53;30.27;;;13.35;;
76863;SDS011;65834;52.364;9.754;2023-10-09T06:14:44;31.27;;;14.02;;
76863;SDS011;65834;52.364;9.754;2023-10-09T06:17:24;33.78;;;15.10;;
76863;SDS011;65834;52.364;9.754;2023-10-09T06:20:10;31.63;;;14.60;;
76863;SDS011;65834;52.364;9.754;2023-10-09T06:22:55;29.02;;;14.20;;
76863;SDS011;65834;52.364;9.754;2023-10-09T06:25:42;29.67;;;15.38;;
76863;SDS011;65834;52.364;9.754;2023-10-09T06:28:18;29.95;;;13.80;;
76863;SDS011;65834;52.364;9.754;2023-10-09T06:30:59;31.65;;;15.10;;
76863;SDS011;65834;52.364;9.754;2023-10-09T06:33:49;27.67;;;14.13;;
76863;SDS011;65834;52.364;9.754;2023-10-09T06:36:34;28.75;;;14.60;;
76863;SDS011;65834;52.364;9.754;2023-10-09T06:39:05;31.02;;;14.13;;
76863;SDS011;65834;52.364;9.754;2023-10-09T06:41:47;32.53;;;13.40;;
76863;SDS011;65834;52.364;9.754;2023-10-09T06:44:36;34.90;;;14.55;;
76863;SDS011;65834;52.364;9.754;2023-10-09T06:47:21;34.95;;;13.90;;
76863;SDS011;65834;52.364;9.754;2023-10-09T06:49:51;28.67;;;13.88;;
76863;SDS011;65834;52.364;9.754;2023-10-09T06:52:33;28.83;;;13.05;;
76863;SDS011;65834;52.364;9.754;2023-10-09T06:55:18;23.58;;;12.18;;
76863;SDS011;65834;52.364;9.754;2023-10-09T06:57:59;29.60;;;15.02;;
76863;SDS011;65834;52.364;9.754;2023-10-09T07:00:28;27.10;;;13.48;;
76863;SDS011;65834;52.364;9.754;2023-10-09T07:03:10;29.10;;;12.82;;
76863;SDS011;65834;52.364;9.754;2023-10-09T07:05:41;29.33;;;12.45;;
76863;SDS011;65834;52.364;9.754;2023-10-09T07:08:27;27.63;;;12.05;;
76863;SDS011;65834;52.364;9.754;2023-10-09T07:11:06;29.33;;;13.65;;
76863;SDS011;65834;52.364;9.754;2023-10-09T07:13:48;30.85;;;13.18;;
76863;SDS011;65834;52.364;9.754;2023-10-09T07:16:22;28.17;;;13.77;;
76863;SDS011;65834;52.364;9.754;2023-10-09T07:18:55;28.10;;;12.88;;
76863;SDS011;65834;52.364;9.754;2023-10-09T07:21:36;30.15;;;15.93;;
76863;SDS011;65834;52.364;9.754;2023-10-09T07:24:06;28.40;;;14.20;;
76863;SDS011;65834;52.364;9.754;2023-10-09T07:26:46;28.33;;;13.38;;
76863;SDS011;65834;52.364;9.754;2023-10-09T07:29:20;32.47;;;13.70;;
76863;SDS011;65834;52.364;9.754;2023-10-09T07:31:51;27.00;;;13.75;;
76863;SDS011;65834;52.364;9.754;2023-10-09T07:34:39;30.52;;;14.13;;
76863;SDS011;65834;52.364;9.754;2023-10-09T07:37:20;30.08;;;13.35;;
76863;SDS011;65834;52.364;9.754;2023-10-09T07:39:57;27.75;;;13.90;;
76863;SDS011;65834;52.364;9.754;2023-10-09T07:42:35;30.13;;;14.40;;
76863;SDS011;65834;52.364;9.754;2023-10-09T07:47:58;27.52;;;12.38;;
76863;SDS011;65834;52.364;9.754;2023-10-09T07:50:35;30.75;;;15.48;;
76863;SDS011;65834;52.364;9.754;2023-10-09T07:53:15;30.77;;;14.48;;
76863;SDS011;65834;52.364;9.754;2023-10-09T07:55:52;28.63;;;14.30;;
76863;SDS011;65834;52.364;9.754;2023-10-09T07:58:35;31.13;;;14.82;;
76863;SDS011;65834;52.364;9.754;2023-10-09T08:01:12;26.98;;;14.25;;
76863;SDS011;65834;52.364;9.754;2023-10-09T08:03:49;32.75;;;14.65;;
76863;SDS011;65834;52.364;9.754;2023-10-09T08:06:32;29.63;;;14.45;;
76863;SDS011;65834;52.364;9.754;2023-10-09T08:09:28;32.67;;;15.35;;
76863;SDS011;65834;52.364;9.754;2023-10-09T08:12:14;30.35;;;15.90;;
76863;SDS011;65834;52.364;9.754;2023-10-09T08:15:05;32.10;;;15.57;;
76863;SDS011;65834;52.364;9.754;2023-10-09T08:17:54;27.58;;;14.60;;
76863;SDS011;65834;52.364;9.754;2023-10-09T08:20:26;30.33;;;15.93;;
76863;SDS011;65834;52.364;9.754;2023-10-09T08:23:12;29.95;;;14.75;;
76863;SDS011;65834;52.364;9.754;2023-10-09T08:25:48;25.05;;;12.73;;
76863;SDS011;65834;52.364;9.754;2023-10-09T08:28:23;25.95;;;13.02;;
76863;SDS011;65834;52.364;9.754;2023-10-09T08:31:10;24.15;;;11.95;;
76863;SDS011;65834;52.364;9.754;2023-10-09T08:34:01;26.13;;;13.23;;
76863;SDS011;65834;52.364;9.754;2023-10-09T08:36:31;28.00;;;13.63;;
76863;SDS011;65834;52.364;9.754;2023-10-09T08:39:03;22.33;;;13.20;;
76863;SDS011;65834;52.364;9.754;2023-10-09T08:41:43;24.27;;;13.45;;
76863;SDS011;65834;52.364;9.754;2023-10-09T08:44:13;26.00;;;12.15;;
76863;SDS011;65834;52.364;9.754;2023-10-09T08:46:46;22.65;;;12.05;;
76863;SDS011;65834;52.364;9.754;2023-10-09T08:49:17;23.92;;;11.00;;
76863;SDS011;65834;52.364;9.754;2023-10-09T08:51:48;25.60;;;13.20;;
76863;SDS011;65834;52.364;9.754;2023-10-09T08:54:19;23.08;;;11.85;;
76863;SDS011;65834;52.364;9.754;2023-10-09T08:56:48;23.35;;;12.38;;
76863;SDS011;65834;52.364;9.754;2023-10-09T08:59:21;23.40;;;11.80;;
76863;SDS011;65834;52.364;9.754;2023-10-09T09:01:53;22.67;;;11.57;;
76863;SDS011;65834;52.364;9.754;2023-10-09T09:04:38;21.58;;;11.68;;
76863;SDS011;65834;52.364;9.754;2023-10-09T09:09:56;20.17;;;9.40;;
76863;SDS011;65834;52.364;9.754;2023-10-09T09:12:31;22.50;;;9.80;;
76863;SDS011;65834;52.364;9.754;2023-10-09T09:15:05;21.40;;;10.40;;
76863;SDS011;65834;52.364;9.754;2023-10-09T09:17:49;23.98;;;11.35;;
76863;SDS011;65834;52.364;9.754;2023-10-09T09:20:21;20.98;;;10.25;;
76863;SDS011;65834;52.364;9.754;2023-10-09T09:22:56;20.67;;;9.65;;
76863;SDS011;65834;52.364;9.754;2023-10-09T09:25:39;22.10;;;10.10;;
76863;SDS011;65834;52.364;9.754;2023-10-09T09:28:15;22.23;;;11.52;;
76863;SDS011;65834;52.364;9.754;2023-10-09T09:30:48;21.23;;;10.10;;
76863;SDS011;65834;52.364;9.754;2023-10-09T09:33:24;20.95;;;9.27;;
76863;SDS011;65834;52.364;9.754;2023-10-09T09:36:06;23.73;;;9.93;;
76863;SDS011;65834;52.364;9.754;2023-10-09T09:38:38;23.70;;;9.88;;
76863;SDS011;65834;52.364;9.754;2023-10-09T09:41:15;18.95;;;8.23;;
76863;SDS011;65834;52.364;9.754;2023-10-09T09:43:51;21.33;;;8.98;;
76863;SDS011;65834;52.364;9.754;2023-10-09T09:46:31;21.10;;;9.77;;
76863;SDS011;65834;52.364;9.754;2023-10-09T09:49:06;22.75;;;9.63;;
76863;SDS011;65834;52.364;9.754;2023-10-09T09:51:43;23.75;;;9.98;;
76863;SDS011;65834;52.364;9.754;2023-10-09T09:54:13;23.73;;;10.60;;
76863;SDS011;65834;52.364;9.754;2023-10-09T09:56:45;25.92;;;12.73;;
76863;SDS011;65834;52.364;9.754;2023-10-09T09:59:18;26.15;;;11.35;;
76863;SDS011;65834;52.364;9.754;2023-10-09T10:01:54;20.80;;;10.25;;
76863;SDS011;65834;52.364;9.754;2023-10-09T10:04:36;24.65;;;12.43;;
76863;SDS011;65834;52.364;9.754;2023-10-09T10:07:11;24.27;;;11.00;;
76863;SDS011;65834;52.364;9.754;2023-10-09T10:09:42;27.50;;;12.38;;
76863;SDS011;65834;52.364;9.754;2023-10-09T10:12:15;25.33;;;12.50;;
76863;SDS011;65834;52.364;9.754;2023-10-09T10:18:31;27.33;;;12.82;;
76863;SDS011;65834;52.364;9.754;2023-10-09T10:21:12;26.05;;;13.38;;
76863;SDS011;65834;52.364;9.754;2023-10-09T10:26:32;25.67;;;13.10;;
76863;SDS011;65834;52.364;9.754;2023-10-09T10:29:16;24.92;;;11.68;;
76863;SDS011;65834;52.364;9.754;2023-10-09T10:31:54;23.35;;;12.32;;
76863;SDS011;65834;52.364;9.754;2023-10-09T10:34:49;27.52;;;12.18;;
76863;SDS011;65834;52.364;9.754;2023-10-09T10:37:36;25.73;;;12.85;;
76863;SDS011;65834;52.364;9.754;2023-10-09T10:40:11;25.98;;;11.82;;
76863;SDS011;65834;52.364;9.754;2023-10-09T10:43:06;22.70;;;11.50;;
76863;SDS011;65834;52.364;9.754;2023-10-09T10:45:40;24.67;;;13.07;;
76863;SDS011;65834;52.364;9.754;2023-10-09T10:48:12;23.60;;;13.10;;
76863;SDS011;65834;52.364;9.754;2023-10-09T10:50:55;25.38;;;12.63;;
76863;SDS011;65834;52.364;9.754;2023-10-09T10:53:30;24.55;;;10.88;;
76863;SDS011;65834;52.364;9.754;2023-10-09T10:56:14;24.67;;;13.10;;
76863;SDS011;65834;52.364;9.754;2023-10-09T10:59:01;22.85;;;12.18;;
76863;SDS011;65834;52.364;9.754;2023-10-09T11:01:44;22.73;;;12.07;;
76863;SDS011;65834;52.364;9.754;2023-10-09T11:04:21;20.73;;;10.48;;
76863;SDS011;65834;52.364;9.754;2023-10-09T11:06:54;22.25;;;12.57;;
76863;SDS011;65834;52.364;9.754;2023-10-09T11:09:44;20.92;;;12.13;;
76863;SDS011;65834;52.364;9.754;2023-10-09T11:12:43;24.38;;;14.25;;
76863;SDS011;65834;52.364;9.754;2023-10-09T11:15:35;22.55;;;11.38;;
76863;SDS011;65834;52.364;9.754;2023-10-09T11:18:22;23.27;;;12.57;;
76863;SDS011;65834;52.364;9.754;2023-10-09T11:20:54;22.40;;;13.38;;
76863;SDS011;65834;52.364;9.754;2023-10-09T11:23:46;21.30;;;11.55;;
76863;SDS011;65834;52.364;9.754;2023-10-09T11:26:31;22.98;;;12.82;;
76863;SDS011;65834;52.364;9.754;2023-10-09T11:29:07;20.65;;;12.13;;
76863;SDS011;65834;52.364;9.754;2023-10-09T11:31:40;23.05;;;12.52;;
76863;SDS011;65834;52.364;9.754;2023-10-09T11:34:18;21.98;;;12.15;;
76863;SDS011;65834;52.364;9.754;2023-10-09T11:36:56;20.88;;;11.38;;
76863;SDS011;65834;52.364;9.754;2023-10-09T11:39:30;22.95;;;11.98;;
76863;SDS011;65834;52.364;9.754;2023-10-09T11:42:07;24.55;;;13.65;;
76863;SDS011;65834;52.364;9.754;2023-10-09T11:44:38;26.38;;;14.55;;
76863;SDS011;65834;52.364;9.754;2023-10-09T11:47:06;22.20;;;14.00;;
76863;SDS011;65834;52.364;9.754;2023-10-09T11:49:50;26.85;;;14.63;;
76863;SDS011;65834;52.364;9.754;2023-10-09T11:55:23;23.65;;;13.80;;
76863;SDS011;65834;52.364;9.754;2023-10-09T11:57:57;24.50;;;12.63;;
76863;SDS011;65834;52.364;9.754;2023-10-09T12:00:28;23.23;;;12.95;;
76863;SDS011;65834;52.364;9.754;2023-10-09T12:03:09;21.45;;;12.85;;
76863;SDS011;65834;52.364;9.754;2023-10-09T12:05:39;22.85;;;12.90;;
76863;SDS011;65834;52.364;9.754;2023-10-09T12:08:12;22.55;;;12.77;;
76863;SDS011;65834;52.364;9.754;2023-10-09T12:10:42;20.65;;;11.85;;
76863;SDS011;65834;52.364;9.754;2023-10-09T12:13:20;22.42;;;13.30;;
76863;SDS011;65834;52.364;9.754;2023-10-09T12:15:50;24.20;;;12.15;;
76863;SDS011;65834;52.364;9.754;2023-10-09T12:18:21;22.27;;;13.15;;
76863;SDS011;65834;52.364;9.754;2023-10-09T12:20:51;21.88;;;12.25;;
76863;SDS011;65834;52.364;9.754;2023-10-09T12:23:29;24.70;;;12.27;;
76863;SDS011;65834;52.364;9.754;2023-10-09T12:26:02;21.77;;;12.23;;
76863;SDS011;65834;52.364;9.754;2023-10-09T12:28:44;20.83;;;13.38;;
76863;SDS011;65834;52.364;9.754;2023-10-09T12:31:16;22.67;;;12.40;;
76863;SDS011;65834;52.364;9.754;2023-10-09T12:33:47;21.05;;;11.40;;
76863;SDS011;65834;52.364;9.754;2023-10-09T12:36:18;22.15;;;11.50;;
76863;SDS011;65834;52.364;9.754;2023-10-09T12:38:49;22.77;;;12.88;;
76863;SDS011;65834;52.364;9.754;2023-10-09T12:41:21;23.20;;;12.25;;
76863;SDS011;65834;52.364;9.754;2023-10-09T12:43:58;24.23;;;12.63;;
76863;SDS011;65834;52.364;9.754;2023-10-09T12:46:35;20.77;;;12.63;;
76863;SDS011;65834;52.364;9.754;2023-10-09T12:49:05;22.20;;;11.45;;
76863;SDS011;65834;52.364;9.754;2023-10-09T12:54:07;25.83;;;13.88;;
76863;SDS011;65834;52.364;9.754;2023-10-09T12:56:37;25.17;;;13.82;;
76863;SDS011;65834;52.364;9.754;2023-10-09T12:59:09;24.33;;;14.00;;
76863;SDS011;65834;52.364;9.754;2023-10-09T13:01:42;25.42;;;13.63;;
76863;SDS011;65834;52.364;9.754;2023-10-09T13:04:11;21.52;;;12.90;;
76863;SDS011;65834;52.364;9.754;2023-10-09T13:06:43;22.50;;;12.48;;
76863;SDS011;65834;52.364;9.754;2023-10-09T13:09:13;20.85;;;11.98;;
76863;SDS011;65834;52.364;9.754;2023-10-09T13:11:51;22.30;;;12.23;;
76863;SDS011;65834;52.364;9.754;2023-10-09T13:14:29;20.40;;;12.18;;
76863;SDS011;65834;52.364;9.754;2023-10-09T13:17:01;24.77;;;14.00;;
76863;SDS011;65834;52.364;9.754;2023-10-09T13:19:37;19.33;;;11.20;;
76863;SDS011;65834;52.364;9.754;2023-10-09T13:22:06;22.13;;;11.50;;
76863;SDS011;65834;52.364;9.754;2023-10-09T13:24:40;19.48;;;10.68;;
76863;SDS011;65834;52.364;9.754;2023-10-09T13:27:10;20.92;;;11.40;;
76863;SDS011;65834;52.364;9.754;2023-10-09T13:29:43;19.77;;;11.38;;
76863;SDS011;65834;52.364;9.754;2023-10-09T13:32:12;20.50;;;12.10;;
76863;SDS011;65834;52.364;9.754;2023-10-09T13:34:42;18.83;;;11.63;;
76863;SDS011;65834;52.364;9.754;2023-10-09T13:42:23;20.30;;;11.88;;
76863;SDS011;65834;52.364;9.754;2023-10-09T13:44:56;20.02;;;10.68;;
76863;SDS011;65834;52.364;9.754;2023-10-09T13:47:31;22.50;;;11.18;;
76863;SDS011;65834;52.364;9.754;2023-10-09T13:50:04;17.60;;;10.82;;
76863;SDS011;65834;52.364;9.754;2023-10-09T13:52:36;19.50;;;11.43;;
76863;SDS011;65834;52.364;9.754;2023-10-09T13:55:07;22.80;;;12.98;;
76863;SDS011;65834;52.364;9.754;2023-10-09T13:57:44;22.25;;;11.80;;
76863;SDS011;65834;52.364;9.754;2023-10-09T14:00:17;18.88;;;11.70;;
76863;SDS011;65834;52.364;9.754;2023-10-09T14:02:59;18.50;;;10.68;;
76863;SDS011;65834;52.364;9.754;2023-10-09T14:05:39;18.38;;;11.13;;
76863;SDS011;65834;52.364;9.754;2023-10-09T14:08:19;19.67;;;11.95;;
76863;SDS011;65834;52.364;9.754;2023-10-09T14:10:52;17.60;;;10.35;;
76863;SDS011;65834;52.364;9.754;2023-10-09T14:13:22;18.08;;;10.48;;
76863;SDS011;65834;52.364;9.754;2023-10-09T14:15:58;21.48;;;11.32;;
76863;SDS011;65834;52.364;9.754;2023-10-09T14:18:29;20.05;;;11.20;;
76863;SDS011;65834;52.364;9.754;2023-10-09T14:21:00;18.90;;;11.02;;
76863;SDS011;65834;52.364;9.754;2023-10-09T14:23:31;18.42;;;11.10;;
76863;SDS011;65834;52.364;9.754;2023-10-09T14:26:01;18.77;;;11.63;;
76863;SDS011;65834;52.364;9.754;2023-10-09T14:28:33;18.92;;;10.43;;
76863;SDS011;65834;52.364;9.754;2023-10-09T14:31:06;17.83;;;10.85;;
76863;SDS011;65834;52.364;9.754;2023-10-09T14:33:38;19.73;;;11.02;;
76863;SDS011;65834;52.364;9.754;2023-10-09T14:36:09;19.02;;;10.45;;
76863;SDS011;65834;52.364;9.754;2023-10-09T14:38:41;19.50;;;9.73;;
76863;SDS011;65834;52.364;9.754;2023-10-09T14:41:13;19.90;;;10.00;;
76863;SDS011;65834;52.364;9.754;2023-10-09T14:43:42;17.60;;;10.07;;
76863;SDS011;65834;52.364;9.754;2023-10-09T14:46:16;17.50;;;9.93;;
76863;SDS011;65834;52.364;9.754;2023-10-09T14:48:49;20.63;;;10.85;;
76863;SDS011;65834;52.364;9.754;2023-10-09T14:51:20;18.23;;;10.57;;
76863;SDS011;65834;52.364;9.754;2023-10-09T14:53:54;17.45;;;9.27;;
76863;SDS011;65834;52.364;9.754;2023-10-09T14:56:28;18.17;;;9.88;;
76863;SDS011;65834;52.364;9.754;2023-10-09T14:58:59;21.67;;;10.77;;
76863;SDS011;65834;52.364;9.754;2023-10-09T15:01:32;18.63;;;9.85;;
76863;SDS011;65834;52.364;9.754;2023-10-09T15:04:02;18.60;;;9.88;;
76863;SDS011;65834;52.364;9.754;2023-10-09T15:06:31;20.60;;;11.07;;
76863;SDS011;65834;52.364;9.754;2023-10-09T15:09:05;18.55;;;10.65;;
76863;SDS011;65834;52.364;9.754;2023-10-09T15:11:48;18.60;;;11.10;;
76863;SDS011;65834;52.364;9.754;2023-10-09T15:14:18;19.85;;;11.48;;
76863;SDS011;65834;52.364;9.754;2023-10-09T15:16:51;21.90;;;11.63;;
76863;SDS011;65834;52.364;9.754;2023-10-09T15:19:24;19.80;;;11.40;;
76863;SDS011;65834;52.364;9.754;2023-10-09T15:21:56;20.25;;;10.73;;
76863;SDS011;65834;52.364;9.754;2023-10-09T15:26:58;17.77;;;9.45;;
76863;SDS011;65834;52.364;9.754;2023-10-09T15:29:28;19.30;;;11.23;;
76863;SDS011;65834;52.364;9.754;2023-10-09T15:32:02;20.35;;;11.00;;
76863;SDS011;65834;52.364;9.754;2023-10-09T15:34:41;19.80;;;11.10;;
76863;SDS011;65834;52.364;9.754;2023-10-09T15:37:10;18.85;;;9.52;;
76863;SDS011;65834;52.364;9.754;2023-10-09T15:39:40;16.88;;;9.90;;
76863;SDS011;65834;52.364;9.754;2023-10-09T15:42:10;17.02;;;8.90;;
76863;SDS011;65834;52.364;9.754;2023-10-09T15:44:40;16.02;;;8.52;;
76863;SDS011;65834;52.364;9.754;2023-10-09T15:47:17;15.68;;;8.02;;
76863;SDS011;65834;52.364;9.754;2023-10-09T15:49:48;16.10;;;7.68;;
76863;SDS011;65834;52.364;9.754;2023-10-09T15:52:21;14.43;;;6.90;;
76863;SDS011;65834;52.364;9.754;2023-10-09T15:54:53;14.35;;;7.97;;